createdAt,value
2023-04-16T00:01:52.749Z,100629.06
2023-04-16T00:04:20.741Z,100631.63
2023-04-16T00:06:56.747Z,100634.94
2023-04-16T00:09:23.595Z,100630.72
2023-04-16T00:11:50.514Z,100629.25
2023-04-16T00:14:17.478Z,100635.94
2023-04-16T00:16:47.482Z,100641.16
2023-04-16T00:19:21.784Z,100629.66
2023-04-16T00:21:56.857Z,100631.16
2023-04-16T00:24:23.835Z,100631.41
2023-04-16T00:26:51.043Z,100632.59
2023-04-16T00:29:17.948Z,100633.69
2023-04-16T00:31:44.974Z,100623.59
2023-04-16T00:34:18.277Z,100622.41
2023-04-16T00:37:02.268Z,100620.28
2023-04-16T00:39:29.259Z,100624.97
2023-04-16T00:41:56.233Z,100630.69
2023-04-16T00:44:26.044Z,100637.28
2023-04-16T00:46:55.847Z,100633.41
2023-04-16T00:49:29.656Z,100635.38
2023-04-16T00:52:05.142Z,100637.47
2023-04-16T00:54:36.111Z,100632.50
2023-04-16T00:57:03.561Z,100624.66
2023-04-16T00:59:30.491Z,100633.06
2023-04-16T01:01:57.526Z,100632.47
2023-04-16T01:04:24.830Z,100637.19
2023-04-16T01:06:51.892Z,100635.03
2023-04-16T01:09:20.756Z,100639.41
2023-04-16T01:11:50.492Z,100637.91
2023-04-16T01:14:21.483Z,100638.09
2023-04-16T01:16:50.801Z,100639.38
2023-04-16T01:19:17.695Z,100641.38
2023-04-16T01:21:54.538Z,100636.53
2023-04-16T01:25:07.805Z,100630.06
2023-04-16T01:27:39.889Z,100639.84
2023-04-16T01:30:43.504Z,100637.09
2023-04-16T01:33:24.556Z,100642.66
2023-04-16T01:36:00.616Z,100639.22
2023-04-16T01:38:30.602Z,100635.50
2023-04-16T01:41:11.947Z,100641.81
2023-04-16T01:43:43.200Z,100643.16
2023-04-16T01:46:27.631Z,100642.97
2023-04-16T01:49:01.153Z,100646.34
2023-04-16T01:51:39.609Z,100646.09
2023-04-16T01:54:06.470Z,100646.94
2023-04-16T01:56:53.700Z,100654.09
2023-04-16T01:59:21.024Z,100649.59
2023-04-16T02:01:48.044Z,100650.66
2023-04-16T02:04:18.036Z,100664.53
2023-04-16T02:06:51.167Z,100650.03
2023-04-16T02:09:21.787Z,100652.28
2023-04-16T02:11:48.911Z,100656.38
2023-04-16T02:14:16.018Z,100661.25
2023-04-16T02:16:51.540Z,100648.66
2023-04-16T02:19:27.653Z,100657.59
2023-04-16T02:22:04.327Z,100664.16
2023-04-16T02:24:31.196Z,100652.63
2023-04-16T02:26:58.516Z,100656.41
2023-04-16T02:29:30.183Z,100656.41
2023-04-16T02:31:57.762Z,100666.41
2023-04-16T02:34:25.946Z,100667.31
2023-04-16T02:36:52.990Z,100668.66
2023-04-16T02:39:20.349Z,100668.56
2023-04-16T02:41:47.690Z,100670.53
2023-04-16T02:44:14.784Z,100673.16
2023-04-16T02:46:41.795Z,100675.06
2023-04-16T02:49:11.948Z,100678.38
2023-04-16T02:51:39.089Z,100671.13
2023-04-16T02:54:08.988Z,100679.31
2023-04-16T02:56:35.856Z,100667.31
2023-04-16T02:59:11.843Z,100672.69
2023-04-16T03:01:42.549Z,100682.09
2023-04-16T03:04:09.603Z,100686.38
2023-04-16T03:06:40.749Z,100696.72
2023-04-16T03:09:08.963Z,100691.44
2023-04-16T03:11:36.457Z,100687.28
2023-04-16T03:14:03.571Z,100688.84
2023-04-16T03:16:37.507Z,100690.84
2023-04-16T03:19:08.249Z,100698.34
2023-04-16T03:21:38.104Z,100699.22
2023-04-16T03:24:08.896Z,100696.59
2023-04-16T03:26:37.067Z,100695.63
2023-04-16T03:29:04.048Z,100698.06
2023-04-16T03:31:31.262Z,100701.78
2023-04-16T03:33:58.278Z,100704.91
2023-04-16T03:36:26.821Z,100714.13
2023-04-16T03:38:56.065Z,100709.09
2023-04-16T03:41:23.100Z,100713.69
2023-04-16T03:43:50.792Z,100709.66
2023-04-16T03:46:21.239Z,100704.53
2023-04-16T03:48:50.763Z,100706.16
2023-04-16T03:51:20.198Z,100706.91
2023-04-16T03:53:47.118Z,100710.41
2023-04-16T03:56:13.985Z,100713.81
2023-04-16T03:58:44.019Z,100712.34
2023-04-16T04:01:10.990Z,100720.16
2023-04-16T04:03:38.183Z,100722.06
2023-04-16T04:06:09.454Z,100720.25
2023-04-16T04:08:36.817Z,100731.44
2023-04-16T04:11:03.778Z,100734.53
2023-04-16T04:13:30.742Z,100733.03
2023-04-16T04:16:00.721Z,100738.72
2023-04-16T04:18:27.652Z,100739.06
2023-04-16T04:20:54.562Z,100740.06
2023-04-16T04:23:21.751Z,100737.72
2023-04-16T04:25:48.660Z,100738.00
2023-04-16T04:28:15.941Z,100742.09
2023-04-16T04:30:42.849Z,100740.69
2023-04-16T04:33:15.359Z,100753.00
2023-04-16T04:35:58.645Z,100751.31
2023-04-16T04:38:25.810Z,100757.06
2023-04-16T04:40:55.841Z,100770.28
2023-04-16T04:43:29.192Z,100768.75
2023-04-16T04:45:56.611Z,100774.88
2023-04-16T04:48:26.908Z,100774.81
2023-04-16T04:50:56.734Z,100784.97
2023-04-16T04:53:23.754Z,100779.66
2023-04-16T04:55:54.228Z,100786.34
2023-04-16T04:58:24.513Z,100786.97
2023-04-16T05:00:51.666Z,100790.50
2023-04-16T05:03:22.230Z,100795.91
2023-04-16T05:05:49.299Z,100801.41
2023-04-16T05:08:16.431Z,100791.13
2023-04-16T05:10:47.248Z,100802.28
2023-04-16T05:13:14.337Z,100801.47
2023-04-16T05:15:41.527Z,100806.59
2023-04-16T05:18:11.101Z,100809.06
2023-04-16T05:20:44.685Z,100819.88
2023-04-16T05:23:11.759Z,100819.31
2023-04-16T05:25:39.510Z,100818.31
2023-04-16T05:28:06.409Z,100819.22
2023-04-16T05:30:34.004Z,100822.00
2023-04-16T05:33:06.644Z,100827.25
2023-04-16T05:35:44.356Z,100825.28
2023-04-16T05:38:20.532Z,100832.75
2023-04-16T05:40:49.198Z,100830.91
2023-04-16T05:45:59.151Z,100836.03
2023-04-16T05:48:26.206Z,100834.84
2023-04-16T05:50:55.059Z,100829.50
2023-04-16T05:53:25.381Z,100833.69
2023-04-16T05:55:55.336Z,100838.59
2023-04-16T05:58:25.431Z,100844.66
2023-04-16T06:00:52.447Z,100844.53
2023-04-16T06:03:22.313Z,100849.72
2023-04-16T06:05:57.100Z,100854.22
2023-04-16T06:08:24.161Z,100861.47
2023-04-16T06:10:52.898Z,100860.59
2023-04-16T06:13:22.856Z,100856.84
2023-04-16T06:15:49.820Z,100860.09
2023-04-16T06:18:19.653Z,100856.44
2023-04-16T06:20:46.697Z,100858.34
2023-04-16T06:23:13.696Z,100856.56
2023-04-16T06:25:41.077Z,100860.50
2023-04-16T06:28:08.330Z,100858.66
2023-04-16T06:30:35.909Z,100872.88
2023-04-16T06:33:05.985Z,100878.22
2023-04-16T06:35:36.226Z,100871.97
2023-04-16T06:38:06.160Z,100870.69
2023-04-16T06:40:44.319Z,100867.44
2023-04-16T06:43:11.911Z,100862.03
2023-04-16T06:45:38.962Z,100869.94
2023-04-16T06:48:11.063Z,100864.13
2023-04-16T06:50:48.400Z,100867.75
2023-04-16T06:53:16.553Z,100873.34
2023-04-16T06:55:43.442Z,100876.69
2023-04-16T06:58:19.412Z,100880.47
2023-04-16T07:00:46.632Z,100875.13
2023-04-16T07:03:14.934Z,100874.94
2023-04-16T07:05:42.958Z,100872.75
2023-04-16T07:08:13.774Z,100878.94
2023-04-16T07:10:41.133Z,100879.50
2023-04-16T07:13:11.545Z,100880.16
2023-04-16T07:15:41.621Z,100879.91
2023-04-16T07:18:08.617Z,100888.63
2023-04-16T07:20:36.533Z,100884.13
2023-04-16T07:23:04.769Z,100888.53
2023-04-16T07:25:36.273Z,100878.16
2023-04-16T07:28:06.980Z,100869.72
2023-04-16T07:30:37.327Z,100874.06
2023-04-16T07:33:17.726Z,100877.47
2023-04-16T07:35:48.171Z,100874.34
2023-04-16T07:38:24.056Z,100881.25
2023-04-16T07:40:52.877Z,100881.94
2023-04-16T07:46:14.911Z,100887.81
2023-04-16T07:48:41.812Z,100884.44
2023-04-16T07:51:08.925Z,100889.06
2023-04-16T07:53:36.118Z,100890.19
2023-04-16T07:56:09.763Z,100890.47
2023-04-16T07:58:39.820Z,100889.44
2023-04-16T08:01:12.251Z,100887.31
2023-04-16T08:03:50.429Z,100891.09
2023-04-16T08:06:17.477Z,100896.13
2023-04-16T08:08:50.335Z,100900.47
2023-04-16T08:11:17.559Z,100900.13
2023-04-16T08:13:50.549Z,100911.16
2023-04-16T08:16:26.848Z,100901.22
2023-04-16T08:18:54.064Z,100909.81
2023-04-16T08:21:21.098Z,100904.00
2023-04-16T08:23:56.615Z,100908.97
2023-04-16T08:26:26.706Z,100910.78
2023-04-16T08:29:02.406Z,100913.22
2023-04-16T08:31:29.659Z,100907.50
2023-04-16T08:33:56.632Z,100916.88
2023-04-16T08:36:25.579Z,100911.31
2023-04-16T08:39:00.565Z,100910.31
2023-04-16T08:41:39.147Z,100915.13
2023-04-16T08:44:14.408Z,100918.81
2023-04-16T08:46:42.056Z,100920.53
2023-04-16T08:49:19.956Z,100914.88
2023-04-16T08:51:58.129Z,100912.13
2023-04-16T08:55:04.622Z,100909.97
2023-04-16T08:57:40.418Z,100912.56
2023-04-16T09:00:09.358Z,100915.94
2023-04-16T09:02:41.863Z,100918.78
2023-04-16T09:05:21.248Z,100922.69
2023-04-16T09:07:57.500Z,100908.84
2023-04-16T09:10:28.979Z,100916.91
2023-04-16T09:12:57.351Z,100913.28
2023-04-16T09:15:34.977Z,100913.69
2023-04-16T09:18:12.498Z,100912.59
2023-04-16T09:20:45.864Z,100911.47
2023-04-16T09:23:12.878Z,100913.22
2023-04-16T09:25:40.623Z,100918.50
2023-04-16T09:28:11.277Z,100917.63
2023-04-16T09:30:38.378Z,100917.13
2023-04-16T09:33:23.208Z,100909.25
2023-04-16T09:35:52.777Z,100904.88
2023-04-16T09:38:24.730Z,100915.78
2023-04-16T09:41:15.436Z,100903.94
2023-04-16T09:43:49.502Z,100910.81
2023-04-16T09:46:20.154Z,100916.81
2023-04-16T09:48:51.740Z,100918.19
2023-04-16T09:51:24.303Z,100907.47
2023-04-16T09:53:55.358Z,100911.75
2023-04-16T09:56:31.568Z,100908.28
2023-04-16T09:59:00.918Z,100908.94
2023-04-16T10:01:33.689Z,100900.03
2023-04-16T10:04:00.974Z,100912.75
2023-04-16T10:06:29.605Z,100911.44
2023-04-16T10:08:57.466Z,100907.06
2023-04-16T10:11:27.570Z,100909.94
2023-04-16T10:13:57.556Z,100912.47
2023-04-16T10:16:26.405Z,100909.28
2023-04-16T10:18:56.820Z,100911.13
2023-04-16T10:21:34.440Z,100902.34
2023-04-16T10:24:10.044Z,100904.66
2023-04-16T10:27:05.578Z,100906.41
2023-04-16T10:29:43.821Z,100919.50
2023-04-16T10:32:17.558Z,100911.38
2023-04-16T10:34:55.412Z,100896.91
2023-04-16T10:37:31.489Z,100908.81
2023-04-16T10:40:04.300Z,100911.44
2023-04-16T10:42:34.907Z,100908.38
2023-04-16T10:45:01.795Z,100906.53
2023-04-16T10:47:29.823Z,100906.28
2023-04-16T10:50:01.894Z,100901.22
2023-04-16T10:52:30.091Z,100895.44
2023-04-16T10:54:59.781Z,100901.63
2023-04-16T10:57:32.159Z,100902.69
2023-04-16T11:00:02.274Z,100902.13
2023-04-16T11:02:30.275Z,100897.09
2023-04-16T11:04:58.568Z,100896.28
2023-04-16T11:07:36.262Z,100894.81
2023-04-16T11:10:07.734Z,100893.25
2023-04-16T11:12:46.345Z,100894.03
2023-04-16T11:15:17.600Z,100888.28
2023-04-16T11:17:53.069Z,100893.56
2023-04-16T11:20:33.399Z,100893.94
2023-04-16T11:23:00.513Z,100895.53
2023-04-16T11:25:34.496Z,100891.00
2023-04-16T11:28:06.008Z,100885.44
2023-04-16T11:30:36.839Z,100895.38
2023-04-16T11:33:16.972Z,100887.44
2023-04-16T11:35:46.254Z,100884.94
2023-04-16T11:38:18.716Z,100884.78
2023-04-16T11:40:46.588Z,100874.84
2023-04-16T11:43:21.921Z,100878.34
2023-04-16T11:46:20.033Z,100887.53
2023-04-16T11:48:54.616Z,100881.97
2023-04-16T11:51:24.584Z,100885.72
2023-04-16T11:53:56.554Z,100883.38
2023-04-16T11:56:31.324Z,100886.25
2023-04-16T11:59:17.658Z,100885.03
2023-04-16T12:01:51.767Z,100880.00
2023-04-16T12:04:35.234Z,100897.88
2023-04-16T12:07:10.390Z,100889.81
2023-04-16T12:09:40.699Z,100886.75
2023-04-16T12:12:26.618Z,100877.72
2023-04-16T12:14:55.964Z,100889.19
2023-04-16T12:17:23.712Z,100885.59
2023-04-16T12:20:03.003Z,100877.72
2023-04-16T12:22:37.439Z,100884.97
2023-04-16T12:25:13.298Z,100889.53
2023-04-16T12:27:54.240Z,100877.72
2023-04-16T12:30:25.185Z,100887.97
2023-04-16T12:33:26.938Z,100877.13
2023-04-16T12:35:59.877Z,100857.47
2023-04-16T12:38:28.199Z,100885.25
2023-04-16T12:41:09.534Z,100872.25
2023-04-16T12:43:43.426Z,100870.00
2023-04-16T12:46:14.252Z,100876.28
2023-04-16T12:48:45.429Z,100874.28
2023-04-16T12:51:21.245Z,100873.47
2023-04-16T12:53:51.996Z,100874.72
2023-04-16T12:56:19.028Z,100870.31
2023-04-16T12:58:50.569Z,100867.66
2023-04-16T13:01:23.645Z,100866.38
2023-04-16T13:03:50.987Z,100861.34
2023-04-16T13:06:18.386Z,100861.47
2023-04-16T13:08:45.807Z,100852.72
2023-04-16T13:11:13.346Z,100856.16
2023-04-16T13:13:40.243Z,100861.34
2023-04-16T13:16:09.008Z,100863.31
2023-04-16T13:18:39.906Z,100841.63
2023-04-16T13:21:07.057Z,100844.50
2023-04-16T13:23:35.311Z,100844.59
2023-04-16T13:26:17.096Z,100841.16
2023-04-16T13:28:44.274Z,100837.22
2023-04-16T13:31:18.171Z,100836.69
2023-04-16T13:33:46.542Z,100838.94
2023-04-16T13:36:21.025Z,100842.00
2023-04-16T13:38:57.253Z,100840.00
2023-04-16T13:41:24.471Z,100837.88
2023-04-16T13:43:51.665Z,100843.09
2023-04-16T13:46:19.471Z,100845.63
2023-04-16T13:48:50.508Z,100849.03
2023-04-16T13:51:17.383Z,100843.75
2023-04-16T13:53:44.644Z,100856.94
2023-04-16T13:56:12.644Z,100846.31
2023-04-16T13:58:42.522Z,100836.47
2023-04-16T14:01:19.150Z,100844.28
2023-04-16T14:03:46.462Z,100843.09
2023-04-16T14:06:14.174Z,100837.84
2023-04-16T14:08:42.706Z,100835.47
2023-04-16T14:11:12.006Z,100834.31
2023-04-16T14:13:57.776Z,100837.69
2023-04-16T14:16:27.736Z,100845.53
2023-04-16T14:18:54.890Z,100834.22
2023-04-16T14:21:27.452Z,100835.47
2023-04-16T14:23:54.610Z,100836.09
2023-04-16T14:26:24.219Z,100830.41
2023-04-16T14:28:51.454Z,100832.66
2023-04-16T14:31:18.564Z,100836.03
2023-04-16T14:33:46.224Z,100836.03
2023-04-16T14:36:13.456Z,100826.88
2023-04-16T14:38:43.027Z,100833.53
2023-04-16T14:41:13.176Z,100836.88
2023-04-16T14:43:44.712Z,100830.25
2023-04-16T14:46:23.289Z,100830.13
2023-04-16T14:49:02.705Z,100822.78
2023-04-16T14:51:29.907Z,100828.66
2023-04-16T14:54:03.699Z,100825.19
2023-04-16T14:56:42.224Z,100825.41
2023-04-16T14:59:18.978Z,100837.34
2023-04-16T15:01:46.661Z,100835.16
2023-04-16T15:04:13.921Z,100839.47
2023-04-16T15:06:46.647Z,100839.72
2023-04-16T15:09:13.772Z,100841.50
2023-04-16T15:11:42.523Z,100850.94
2023-04-16T15:14:09.907Z,100837.69
2023-04-16T15:16:37.288Z,100840.47
2023-04-16T15:19:05.397Z,100845.19
2023-04-16T15:21:35.768Z,100852.91
2023-04-16T15:24:12.762Z,100848.91
2023-04-16T15:26:41.668Z,100856.41
2023-04-16T15:29:08.756Z,100859.22
2023-04-16T15:31:38.687Z,100859.19
2023-04-16T15:34:05.846Z,100858.75
2023-04-16T15:36:40.430Z,100858.47
2023-04-16T15:39:10.327Z,100859.78
2023-04-16T15:41:53.572Z,100862.31
2023-04-16T15:44:32.505Z,100854.22
2023-04-16T15:47:02.522Z,100860.09
2023-04-16T15:49:29.594Z,100865.63
2023-04-16T15:52:02.860Z,100860.75
2023-04-16T15:54:32.119Z,100861.97
2023-04-16T15:57:01.229Z,100862.47
2023-04-16T15:59:40.703Z,100869.25
2023-04-16T16:02:12.394Z,100868.81
2023-04-16T16:04:46.436Z,100873.03
2023-04-16T16:07:21.998Z,100875.09
2023-04-16T16:09:49.014Z,100877.88
2023-04-16T16:12:19.171Z,100879.78
2023-04-16T16:14:46.072Z,100872.81
2023-04-16T16:17:14.072Z,100883.44
2023-04-16T16:19:41.302Z,100886.34
2023-04-16T16:22:10.491Z,100883.13
2023-04-16T16:24:37.674Z,100885.31
2023-04-16T16:27:08.297Z,100891.47
2023-04-16T16:29:45.680Z,100896.06
2023-04-16T16:32:16.179Z,100896.72
2023-04-16T16:34:54.483Z,100897.63
2023-04-16T16:37:24.732Z,100905.34
2023-04-16T16:39:59.652Z,100904.78
2023-04-16T16:42:27.377Z,100906.94
2023-04-16T16:44:57.441Z,100911.53
2023-04-16T16:47:25.255Z,100912.38
2023-04-16T16:49:52.698Z,100903.97
2023-04-16T16:52:27.116Z,100911.78
2023-04-16T16:54:54.891Z,100915.03
2023-04-16T16:57:30.113Z,100921.59
2023-04-16T17:02:43.952Z,100924.78
2023-04-16T17:05:11.428Z,100924.56
2023-04-16T17:07:39.380Z,100919.09
2023-04-16T17:10:07.356Z,100925.03
2023-04-16T17:12:34.497Z,100928.16
2023-04-16T17:15:05.056Z,100932.47
2023-04-16T17:17:33.336Z,100931.72
2023-04-16T17:20:07.716Z,100935.31
2023-04-16T17:22:36.226Z,100931.16
2023-04-16T17:25:08.166Z,100937.19
2023-04-16T17:27:36.932Z,100939.00
2023-04-16T17:30:06.161Z,100946.53
2023-04-16T17:35:25.197Z,100956.75
2023-04-16T17:37:55.764Z,100951.84
2023-04-16T17:40:24.765Z,100951.88
2023-04-16T17:43:06.835Z,100961.16
2023-04-16T17:45:44.888Z,100966.25
2023-04-16T17:48:12.892Z,100965.22
2023-04-16T17:50:50.285Z,100963.47
2023-04-16T17:53:17.616Z,100973.31
2023-04-16T17:55:57.855Z,100965.03
2023-04-16T17:58:26.706Z,100973.22
2023-04-16T18:00:55.272Z,100979.13
2023-04-16T18:03:22.941Z,100979.09
2023-04-16T18:05:51.925Z,100983.59
2023-04-16T18:08:18.953Z,100990.06
2023-04-16T18:10:49.572Z,100984.03
2023-04-16T18:13:19.122Z,100985.56
2023-04-16T18:15:46.288Z,100983.34
2023-04-16T18:18:21.024Z,100988.03
2023-04-16T18:21:07.180Z,100985.56
2023-04-16T18:23:35.281Z,100989.59
2023-04-16T18:26:03.814Z,100989.78
2023-04-16T18:28:30.963Z,100988.56
2023-04-16T18:31:03.199Z,100994.19
2023-04-16T18:36:03.077Z,100994.63
2023-04-16T18:38:34.936Z,100994.63
2023-04-16T18:41:07.893Z,100996.13
2023-04-16T18:43:34.967Z,100996.34
2023-04-16T18:46:04.996Z,100995.97
2023-04-16T18:48:38.665Z,101000.22
2023-04-16T18:51:08.755Z,101003.19
2023-04-16T18:53:35.860Z,101001.34
2023-04-16T18:56:03.150Z,101009.13
2023-04-16T18:58:34.452Z,101008.78
2023-04-16T19:01:04.911Z,101011.25
2023-04-16T19:03:37.114Z,101004.84
2023-04-16T19:06:08.403Z,101008.91
2023-04-16T19:08:43.280Z,101008.25
2023-04-16T19:11:22.972Z,101005.69
2023-04-16T19:13:50.227Z,101016.63
2023-04-16T19:16:23.335Z,101011.81
2023-04-16T19:18:54.066Z,101007.84
2023-04-16T19:21:22.560Z,101010.81
2023-04-16T19:23:52.150Z,101009.91
2023-04-16T19:26:22.564Z,101007.88
2023-04-16T19:28:50.914Z,101012.34
2023-04-16T19:34:02.507Z,101011.38
2023-04-16T19:36:31.748Z,101010.75
2023-04-16T19:39:02.453Z,101020.81
2023-04-16T19:41:32.308Z,101019.84
2023-04-16T19:44:03.334Z,101027.31
2023-04-16T19:46:32.719Z,101020.97
2023-04-16T19:49:06.163Z,101024.72
2023-04-16T19:51:36.779Z,101029.53
2023-04-16T19:54:07.038Z,101032.22
2023-04-16T19:56:34.304Z,101027.84
2023-04-16T19:59:12.353Z,101025.44
2023-04-16T20:01:39.965Z,101021.63
2023-04-16T20:04:07.843Z,101030.84
2023-04-16T20:06:35.184Z,101025.75
2023-04-16T20:09:02.370Z,101020.78
2023-04-16T20:11:35.437Z,101032.00
2023-04-16T20:14:05.269Z,101027.44
2023-04-16T20:16:41.124Z,101025.13
2023-04-16T20:19:09.137Z,101026.16
2023-04-16T20:21:38.555Z,101019.53
2023-04-16T20:24:08.135Z,101020.81
2023-04-16T20:26:38.241Z,101021.56
2023-04-16T20:29:05.275Z,101021.19
2023-04-16T20:31:32.427Z,101017.41
2023-04-16T20:34:04.993Z,101021.41
2023-04-16T20:36:32.285Z,101023.63
2023-04-16T20:39:11.353Z,101022.50
2023-04-16T20:41:44.206Z,101021.97
2023-04-16T20:44:20.429Z,101030.63
2023-04-16T20:46:50.602Z,101021.09
2023-04-16T20:49:18.786Z,101028.28
2023-04-16T20:51:54.087Z,101026.03
2023-04-16T20:54:21.333Z,101023.28
2023-04-16T20:56:54.601Z,101025.75
2023-04-16T20:59:24.210Z,101026.28
2023-04-16T21:01:52.898Z,101028.03
2023-04-16T21:04:29.802Z,101018.88
2023-04-16T21:06:57.128Z,101020.31
2023-04-16T21:09:26.585Z,101013.22
2023-04-16T21:11:57.038Z,101018.97
2023-04-16T21:14:24.259Z,101016.72
2023-04-16T21:17:00.882Z,101021.47
2023-04-16T21:19:32.042Z,101021.75
2023-04-16T21:22:05.627Z,101017.78
2023-04-16T21:24:33.046Z,101016.19
2023-04-16T21:27:00.117Z,101018.91
2023-04-16T21:29:27.537Z,101022.34
2023-04-16T21:31:54.876Z,101015.72
2023-04-16T21:34:23.026Z,101027.25
2023-04-16T21:37:06.190Z,101013.25
2023-04-16T21:39:50.363Z,101012.00
2023-04-16T21:42:17.364Z,101019.19
2023-04-16T21:44:44.476Z,101009.56
2023-04-16T21:47:11.668Z,101017.22
2023-04-16T21:49:38.591Z,101014.47
2023-04-16T21:52:19.224Z,101006.72
2023-04-16T21:54:51.044Z,101014.19
2023-04-16T21:57:18.081Z,101019.03
2023-04-16T21:59:45.056Z,101017.38
2023-04-16T22:02:15.138Z,101024.69
2023-04-16T22:04:44.139Z,101022.50
2023-04-16T22:07:11.941Z,101018.66
2023-04-16T22:09:41.879Z,101017.41
2023-04-16T22:12:13.270Z,101020.78
2023-04-16T22:14:55.747Z,101015.22
2023-04-16T22:17:29.735Z,101018.56
2023-04-16T22:19:57.717Z,101022.19
2023-04-16T22:22:48.112Z,101015.13
2023-04-16T22:25:17.670Z,101020.81
2023-04-16T22:27:55.201Z,101008.28
2023-04-16T22:30:32.965Z,101008.38
2023-04-16T22:33:01.285Z,101012.38
2023-04-16T22:35:37.769Z,101017.66
2023-04-16T22:38:05.186Z,101014.53
2023-04-16T22:40:32.417Z,101014.72
2023-04-16T22:42:59.625Z,101014.56
2023-04-16T22:45:28.111Z,101008.63
2023-04-16T22:48:02.895Z,101014.34
2023-04-16T22:50:33.815Z,101016.78
2023-04-16T22:53:00.923Z,101019.69
2023-04-16T22:55:33.938Z,101016.53
2023-04-16T22:58:01.669Z,101015.94
2023-04-16T23:00:29.049Z,101013.84
2023-04-16T23:03:03.352Z,101020.66
2023-04-16T23:05:30.932Z,101011.69
2023-04-16T23:07:58.294Z,101023.25
2023-04-16T23:10:25.580Z,101011.75
2023-04-16T23:12:52.966Z,101020.78
2023-04-16T23:15:24.544Z,101020.03
2023-04-16T23:17:57.489Z,101021.03
2023-04-16T23:20:24.694Z,101024.38
2023-04-16T23:22:54.931Z,101019.16
2023-04-16T23:25:23.239Z,101021.13
2023-04-16T23:27:56.491Z,101022.56
2023-04-16T23:30:35.650Z,101015.38
2023-04-16T23:33:03.393Z,101022.22
2023-04-16T23:35:33.382Z,101018.16
2023-04-16T23:38:00.402Z,101025.03
2023-04-16T23:40:30.406Z,101025.91
2023-04-16T23:43:08.406Z,101020.91
2023-04-16T23:45:38.433Z,101024.69
2023-04-16T23:48:11.336Z,101025.69
2023-04-16T23:50:45.344Z,101025.25
2023-04-16T23:53:12.308Z,101024.41
2023-04-16T23:55:39.437Z,101026.25
2023-04-16T23:58:06.530Z,101028.66
